createdAt,value
2017-11-24T00:02:06.083Z,1.85
2017-11-24T00:04:33.574Z,1.98
2017-11-24T00:07:01.052Z,2.01
2017-11-24T00:09:28.555Z,1.91
2017-11-24T00:11:56.016Z,1.75
2017-11-24T00:14:23.482Z,1.96
2017-11-24T00:16:50.975Z,1.98
2017-11-24T00:19:18.446Z,2.04
2017-11-24T00:21:45.911Z,2.01
2017-11-24T00:24:13.389Z,1.85
2017-11-24T00:26:40.851Z,1.87
2017-11-24T00:29:08.318Z,1.86
2017-11-24T00:31:36.644Z,1.81
2017-11-24T00:34:04.121Z,1.86
2017-11-24T00:36:31.590Z,1.66
2017-11-24T00:38:59.075Z,1.75
2017-11-24T00:41:26.566Z,1.76
2017-11-24T00:43:54.026Z,1.64
2017-11-24T00:46:21.505Z,1.84
2017-11-24T00:48:48.987Z,1.63
2017-11-24T00:51:16.470Z,1.62
2017-11-24T00:53:43.951Z,1.67
2017-11-24T00:56:11.406Z,1.61
2017-11-24T00:58:38.882Z,1.64
2017-11-24T01:01:06.340Z,1.64
2017-11-24T01:03:33.822Z,1.62
2017-11-24T01:06:01.291Z,1.58
2017-11-24T01:08:28.766Z,1.63
2017-11-24T01:10:56.226Z,1.51
2017-11-24T01:13:23.686Z,1.57
2017-11-24T01:15:51.186Z,1.54
2017-11-24T01:18:18.646Z,1.53
2017-11-24T01:20:46.122Z,1.40
2017-11-24T01:23:13.607Z,1.14
2017-11-24T01:25:41.066Z,1.27
2017-11-24T01:28:08.527Z,1.32
2017-11-24T01:30:36.007Z,1.36
2017-11-24T01:33:03.501Z,1.33
2017-11-24T01:35:30.972Z,1.32
2017-11-24T01:37:58.438Z,1.31
2017-11-24T01:40:25.927Z,1.36
2017-11-24T01:42:53.399Z,1.36
2017-11-24T01:45:20.878Z,1.26
2017-11-24T01:47:48.370Z,1.29
2017-11-24T01:50:15.841Z,1.25
2017-11-24T01:52:43.325Z,1.22
2017-11-24T01:55:10.781Z,1.23
2017-11-24T01:57:38.267Z,1.21
2017-11-24T02:00:05.737Z,1.22
2017-11-24T02:02:33.221Z,1.26
2017-11-24T02:05:00.684Z,1.24
2017-11-24T02:07:28.152Z,1.21
2017-11-24T02:09:55.650Z,1.16
2017-11-24T02:12:23.101Z,0.72
2017-11-24T02:14:50.553Z,0.71
2017-11-24T02:17:18.209Z,0.67
2017-11-24T02:19:45.678Z,0.74
2017-11-24T02:22:13.140Z,0.77
2017-11-24T02:24:40.636Z,0.71
2017-11-24T02:27:08.100Z,0.74
2017-11-24T02:29:35.593Z,0.77
2017-11-24T02:32:03.055Z,0.86
2017-11-24T02:34:30.521Z,0.80
2017-11-24T02:36:58.006Z,0.95
2017-11-24T02:39:25.467Z,0.94
2017-11-24T02:41:52.959Z,1.05
2017-11-24T02:44:20.433Z,1.24
2017-11-24T02:46:47.941Z,0.89
2017-11-24T02:49:15.464Z,0.80
2017-11-24T02:51:42.941Z,0.58
2017-11-24T02:54:10.440Z,0.52
2017-11-24T02:56:37.931Z,0.65
2017-11-24T02:59:05.428Z,0.78
2017-11-24T03:01:32.904Z,0.73
2017-11-24T03:04:00.389Z,0.66
2017-11-24T03:06:27.874Z,0.61
2017-11-24T03:08:55.330Z,0.61
2017-11-24T03:11:22.807Z,0.51
2017-11-24T03:13:50.272Z,0.75
2017-11-24T03:16:17.753Z,0.63
2017-11-24T03:18:45.263Z,0.59
2017-11-24T03:21:12.723Z,0.36
2017-11-24T03:23:40.184Z,0.42
2017-11-24T03:26:07.685Z,0.40
2017-11-24T03:28:35.146Z,0.46
2017-11-24T03:31:02.609Z,0.47
2017-11-24T03:33:30.095Z,0.41
2017-11-24T03:35:57.555Z,0.45
2017-11-24T03:38:25.012Z,0.14
2017-11-24T03:40:52.491Z,0.46
2017-11-24T03:43:19.950Z,0.49
2017-11-24T03:45:47.437Z,0.52
2017-11-24T03:48:14.894Z,0.46
2017-11-24T03:50:42.378Z,0.44
2017-11-24T03:53:09.850Z,0.45
2017-11-24T03:55:37.317Z,0.50
2017-11-24T03:58:04.799Z,0.34
2017-11-24T04:00:32.258Z,0.33
2017-11-24T04:02:59.752Z,0.33
2017-11-24T04:05:27.247Z,0.35
2017-11-24T04:07:54.926Z,0.22
2017-11-24T04:10:22.386Z,0.21
2017-11-24T04:12:49.884Z,0.19
2017-11-24T04:15:17.364Z,0.24
2017-11-24T04:17:44.825Z,0.26
2017-11-24T04:20:12.313Z,0.45
2017-11-24T04:22:39.775Z,0.62
2017-11-24T04:25:07.267Z,0.35
2017-11-24T04:27:34.726Z,0.57
2017-11-24T04:30:02.191Z,0.55
2017-11-24T04:32:29.677Z,0.54
2017-11-24T04:34:57.139Z,0.59
2017-11-24T04:37:24.634Z,0.43
2017-11-24T04:39:52.095Z,0.96
2017-11-24T04:42:19.567Z,0.79
2017-11-24T04:44:47.062Z,1.14
2017-11-24T04:47:14.573Z,0.63
2017-11-24T04:49:42.053Z,0.58
2017-11-24T04:52:09.519Z,0.42
2017-11-24T04:54:36.998Z,0.61
2017-11-24T04:57:04.479Z,0.60
2017-11-24T04:59:31.956Z,0.62
2017-11-24T05:01:59.414Z,0.50
2017-11-24T05:04:26.903Z,0.57
2017-11-24T05:06:54.366Z,0.65
2017-11-24T05:09:21.847Z,0.58
2017-11-24T05:11:49.302Z,0.46
2017-11-24T05:14:16.792Z,0.52
2017-11-24T05:16:44.278Z,0.36
2017-11-24T05:19:11.771Z,0.40
2017-11-24T05:21:39.235Z,0.39
2017-11-24T05:24:06.713Z,0.36
2017-11-24T05:26:34.207Z,0.37
2017-11-24T05:29:01.695Z,0.33
2017-11-24T05:31:29.178Z,0.36
2017-11-24T05:33:56.660Z,0.27
2017-11-24T05:36:24.156Z,0.05
2017-11-24T05:38:51.627Z,-0.01
2017-11-24T05:41:19.117Z,-0.03
2017-11-24T05:43:46.617Z,-0.15
2017-11-24T05:46:14.087Z,-0.20
2017-11-24T05:48:41.556Z,-0.29
2017-11-24T05:51:09.042Z,-0.28
2017-11-24T05:53:36.529Z,-0.20
2017-11-24T05:56:04.017Z,-0.22
2017-11-24T05:58:31.495Z,-0.04
2017-11-24T06:00:59.506Z,0.03
2017-11-24T06:03:26.983Z,0.03
2017-11-24T06:05:54.452Z,0.11
2017-11-24T06:08:21.942Z,0.18
2017-11-24T06:10:49.406Z,-0.01
2017-11-24T06:13:16.895Z,-0.03
2017-11-24T06:15:44.362Z,-0.07
2017-11-24T06:18:11.861Z,-0.16
2017-11-24T06:20:39.355Z,-0.14
2017-11-24T06:23:06.863Z,-0.12
2017-11-24T06:25:34.370Z,0.18
2017-11-24T06:28:02.441Z,0.18
2017-11-24T06:30:29.918Z,0.31
2017-11-24T06:32:57.470Z,0.31
2017-11-24T06:35:24.954Z,0.44
2017-11-24T06:37:52.431Z,0.66
2017-11-24T06:40:19.914Z,1.15
2017-11-24T06:42:47.418Z,0.78
2017-11-24T06:45:14.914Z,1.03
2017-11-24T06:47:42.375Z,0.91
2017-11-24T06:50:09.962Z,1.03
2017-11-24T06:52:37.799Z,1.49
2017-11-24T06:55:05.263Z,1.86
2017-11-24T06:57:32.751Z,1.28
2017-11-24T07:00:00.220Z,1.08
2017-11-24T07:02:27.714Z,1.01
2017-11-24T07:04:55.171Z,0.92
2017-11-24T07:07:22.657Z,0.88
2017-11-24T07:09:50.135Z,0.81
2017-11-24T07:12:17.601Z,1.01
2017-11-24T07:14:45.092Z,1.07
2017-11-24T07:17:12.550Z,1.00
2017-11-24T07:19:40.037Z,1.06
2017-11-24T07:22:07.495Z,1.11
2017-11-24T07:24:34.959Z,1.11
2017-11-24T07:27:02.548Z,0.85
2017-11-24T07:29:30.004Z,0.84
2017-11-24T07:31:57.470Z,1.06
2017-11-24T07:34:24.966Z,1.07
2017-11-24T07:36:52.420Z,1.07
2017-11-24T07:39:19.908Z,1.20
2017-11-24T07:41:47.374Z,1.19
2017-11-24T07:44:14.834Z,1.10
2017-11-24T07:46:42.318Z,1.06
2017-11-24T07:49:09.791Z,0.87
2017-11-24T07:51:37.292Z,0.96
2017-11-24T07:54:04.744Z,1.29
2017-11-24T07:56:32.591Z,1.39
2017-11-24T07:59:00.063Z,1.88
2017-11-24T08:01:27.530Z,1.49
2017-11-24T08:03:55.289Z,1.57
2017-11-24T08:06:22.761Z,1.83
2017-11-24T08:08:50.230Z,1.73
2017-11-24T08:11:17.715Z,1.74
2017-11-24T08:13:45.171Z,1.79
2017-11-24T08:16:12.670Z,1.69
2017-11-24T08:18:40.153Z,1.87
2017-11-24T08:21:07.615Z,2.12
2017-11-24T08:23:35.110Z,2.12
2017-11-24T08:26:02.603Z,1.88
2017-11-24T08:28:30.249Z,2.26
2017-11-24T08:30:57.707Z,1.73
2017-11-24T08:33:25.183Z,1.84
2017-11-24T08:35:52.688Z,2.25
2017-11-24T08:38:20.155Z,1.77
2017-11-24T08:40:47.650Z,2.13
2017-11-24T08:43:15.112Z,2.37
2017-11-24T08:45:42.658Z,2.40
2017-11-24T08:48:15.690Z,2.39
2017-11-24T08:50:43.157Z,2.54
2017-11-24T08:53:10.631Z,2.71
2017-11-24T08:55:38.086Z,2.84
2017-11-24T08:58:05.567Z,2.57
2017-11-24T09:00:33.055Z,2.68
2017-11-24T09:03:00.533Z,2.49
2017-11-24T09:05:28.026Z,2.69
2017-11-24T09:07:55.491Z,2.68
2017-11-24T09:10:22.974Z,2.75
2017-11-24T09:12:50.434Z,2.80
2017-11-24T09:15:17.891Z,2.77
2017-11-24T09:17:45.380Z,3.08
2017-11-24T09:20:12.839Z,2.82
2017-11-24T09:22:40.335Z,3.02
2017-11-24T09:25:07.874Z,3.10
2017-11-24T09:27:35.369Z,3.32
2017-11-24T09:30:02.858Z,2.98
2017-11-24T09:32:30.332Z,2.73
2017-11-24T09:34:58.059Z,3.07
2017-11-24T09:37:25.538Z,3.52
2017-11-24T09:39:53.007Z,3.52
2017-11-24T09:42:20.533Z,2.84
2017-11-24T09:44:47.991Z,2.98
2017-11-24T09:47:15.473Z,3.44
2017-11-24T09:49:42.971Z,3.52
2017-11-24T09:52:10.453Z,3.32
2017-11-24T09:54:37.938Z,3.16
2017-11-24T09:57:05.429Z,3.37
2017-11-24T09:59:32.892Z,3.96
2017-11-24T10:02:00.356Z,3.73
2017-11-24T10:04:27.834Z,3.77
2017-11-24T10:06:55.314Z,4.01
2017-11-24T10:09:22.759Z,3.90
2017-11-24T10:11:50.239Z,4.22
2017-11-24T10:14:17.711Z,4.09
2017-11-24T10:16:45.175Z,4.12
2017-11-24T10:19:12.660Z,4.16
2017-11-24T10:21:45.734Z,4.27
2017-11-24T10:24:13.218Z,3.96
2017-11-24T10:26:40.683Z,4.28
2017-11-24T10:29:08.188Z,4.54
2017-11-24T10:31:35.674Z,4.80
2017-11-24T10:34:03.137Z,4.59
2017-11-24T10:36:30.601Z,4.60
2017-11-24T10:38:58.080Z,5.19
2017-11-24T10:41:25.562Z,4.81
2017-11-24T10:43:53.021Z,7.19
2017-11-24T10:46:20.501Z,8.23
2017-11-24T10:48:47.993Z,8.96
2017-11-24T10:51:15.498Z,8.16
2017-11-24T10:53:43.318Z,9.36
2017-11-24T10:56:10.775Z,9.53
2017-11-24T10:58:38.315Z,10.25
2017-11-24T11:01:05.801Z,9.20
2017-11-24T11:03:33.275Z,9.80
2017-11-24T11:06:00.759Z,11.78
2017-11-24T11:08:28.213Z,10.06
2017-11-24T11:10:55.693Z,11.04
2017-11-24T11:13:23.170Z,11.81
2017-11-24T11:15:50.622Z,11.91
2017-11-24T11:18:18.090Z,12.00
2017-11-24T11:20:45.575Z,8.31
2017-11-24T11:23:13.043Z,8.30
2017-11-24T11:25:40.498Z,8.44
2017-11-24T11:28:07.978Z,8.56
2017-11-24T11:30:35.435Z,8.34
2017-11-24T11:33:02.890Z,8.17
2017-11-24T11:35:30.371Z,7.06
2017-11-24T11:37:57.855Z,7.52
2017-11-24T11:40:25.331Z,9.97
2017-11-24T11:42:52.806Z,9.48
2017-11-24T11:45:20.287Z,8.70
2017-11-24T11:47:47.742Z,9.03
2017-11-24T11:50:15.248Z,9.94
2017-11-24T11:52:42.717Z,8.17
2017-11-24T11:55:10.172Z,9.60
2017-11-24T11:57:37.674Z,11.49
2017-11-24T12:00:05.139Z,10.21
2017-11-24T12:02:32.601Z,11.19
2017-11-24T12:05:00.104Z,8.90
2017-11-24T12:07:27.583Z,9.55
2017-11-24T12:09:55.042Z,8.85
2017-11-24T12:12:22.520Z,10.23
2017-11-24T12:14:49.978Z,10.28
2017-11-24T12:17:17.429Z,9.90
2017-11-24T12:19:44.913Z,10.85
2017-11-24T12:22:12.379Z,10.71
2017-11-24T12:24:39.875Z,8.02
2017-11-24T12:27:07.337Z,9.47
2017-11-24T12:29:34.806Z,8.89
2017-11-24T12:32:02.293Z,10.33
2017-11-24T12:34:29.751Z,8.90
2017-11-24T12:36:57.218Z,8.59
2017-11-24T12:39:24.714Z,7.62
2017-11-24T12:41:52.192Z,8.41
2017-11-24T12:44:19.683Z,9.06
2017-11-24T12:46:47.142Z,9.67
2017-11-24T12:49:14.636Z,7.98
2017-11-24T12:51:42.089Z,8.03
2017-11-24T12:54:09.540Z,7.64
2017-11-24T12:56:37.016Z,7.99
2017-11-24T12:59:04.475Z,7.18
2017-11-24T13:01:31.947Z,7.24
2017-11-24T13:03:59.401Z,7.49
2017-11-24T13:06:26.882Z,6.89
2017-11-24T13:08:54.346Z,7.82
2017-11-24T13:11:21.902Z,7.36
2017-11-24T13:13:49.383Z,7.08
2017-11-24T13:16:16.867Z,7.85
2017-11-24T13:18:44.326Z,7.28
2017-11-24T13:21:11.808Z,6.79
2017-11-24T13:23:39.258Z,6.06
2017-11-24T13:26:06.719Z,7.71
2017-11-24T13:28:34.202Z,6.84
2017-11-24T13:31:01.676Z,7.50
2017-11-24T13:33:29.161Z,6.95
2017-11-24T13:35:56.622Z,5.66
2017-11-24T13:38:24.108Z,5.75
2017-11-24T13:40:51.563Z,5.89
2017-11-24T13:43:19.038Z,6.19
2017-11-24T13:45:46.496Z,6.00
2017-11-24T13:48:13.949Z,6.02
2017-11-24T13:50:41.446Z,5.31
2017-11-24T13:53:08.973Z,4.66
2017-11-24T13:55:36.483Z,5.18
2017-11-24T13:58:03.952Z,5.12
2017-11-24T14:00:31.439Z,4.91
2017-11-24T14:02:58.945Z,5.01
2017-11-24T14:05:26.435Z,5.21
2017-11-24T14:07:53.969Z,4.81
2017-11-24T14:10:21.452Z,4.74
2017-11-24T14:12:48.958Z,4.57
2017-11-24T14:15:16.454Z,4.88
2017-11-24T14:17:43.911Z,5.14
2017-11-24T14:20:11.384Z,4.59
2017-11-24T14:22:38.843Z,5.03
2017-11-24T14:25:06.333Z,5.23
2017-11-24T14:27:34.126Z,4.74
2017-11-24T14:30:01.599Z,5.01
2017-11-24T14:32:29.091Z,4.44
2017-11-24T14:34:56.544Z,4.88
2017-11-24T14:37:24.045Z,3.88
2017-11-24T14:39:51.502Z,4.63
2017-11-24T14:42:18.971Z,4.37
2017-11-24T14:44:46.478Z,4.85
2017-11-24T14:47:13.954Z,4.28
2017-11-24T14:49:41.431Z,3.54
2017-11-24T14:52:08.894Z,3.84
2017-11-24T14:54:37.378Z,3.33
2017-11-24T14:57:05.572Z,3.57
2017-11-24T14:59:33.780Z,3.41
2017-11-24T15:02:01.992Z,3.38
2017-11-24T15:04:29.464Z,3.24
2017-11-24T15:06:56.942Z,3.56
2017-11-24T15:09:24.412Z,3.35
2017-11-24T15:11:51.903Z,2.98
2017-11-24T15:14:19.352Z,3.31
2017-11-24T15:16:46.842Z,3.14
2017-11-24T15:19:14.303Z,3.13
2017-11-24T15:21:41.788Z,3.35
2017-11-24T15:24:09.264Z,3.59
2017-11-24T15:26:36.754Z,3.51
2017-11-24T15:29:04.212Z,3.66
2017-11-24T15:31:31.669Z,3.29
2017-11-24T15:33:59.154Z,3.31
2017-11-24T15:36:26.623Z,3.64
2017-11-24T15:38:54.107Z,3.64
2017-11-24T15:41:21.575Z,3.60
2017-11-24T15:43:49.086Z,3.74
2017-11-24T15:46:16.565Z,4.35
2017-11-24T15:48:44.022Z,3.78
2017-11-24T15:51:11.553Z,3.71
2017-11-24T15:53:39.044Z,3.70
2017-11-24T15:56:06.506Z,3.55
2017-11-24T15:58:33.994Z,3.31
2017-11-24T16:01:01.454Z,3.55
2017-11-24T16:03:28.935Z,3.66
2017-11-24T16:05:56.413Z,3.57
2017-11-24T16:08:23.877Z,3.37
2017-11-24T16:10:51.370Z,3.49
2017-11-24T16:13:18.849Z,3.42
2017-11-24T16:15:46.335Z,3.17
2017-11-24T16:18:13.836Z,3.10
2017-11-24T16:20:41.303Z,3.28
2017-11-24T16:23:08.795Z,3.35
2017-11-24T16:25:36.262Z,3.08
2017-11-24T16:28:03.733Z,3.26
2017-11-24T16:30:31.238Z,3.21
2017-11-24T16:33:00.430Z,3.13
2017-11-24T16:35:29.899Z,3.16
2017-11-24T16:37:57.481Z,3.26
2017-11-24T16:40:24.955Z,4.06
2017-11-24T16:42:52.443Z,3.48
2017-11-24T16:45:19.902Z,3.28
2017-11-24T16:47:47.385Z,3.44
2017-11-24T16:50:14.857Z,3.23
2017-11-24T16:52:42.339Z,3.25
2017-11-24T16:55:09.823Z,3.28
2017-11-24T16:57:37.831Z,3.34
2017-11-24T17:00:05.396Z,3.17
2017-11-24T17:02:32.870Z,3.13
2017-11-24T17:05:00.338Z,3.21
2017-11-24T17:07:28.726Z,3.20
2017-11-24T17:09:56.182Z,3.36
2017-11-24T17:12:23.641Z,3.47
2017-11-24T17:14:51.133Z,3.25
2017-11-24T17:17:18.627Z,3.35
2017-11-24T17:19:46.092Z,3.38
2017-11-24T17:22:13.567Z,4.29
2017-11-24T17:24:41.078Z,3.62
2017-11-24T17:27:08.575Z,3.32
2017-11-24T17:29:36.047Z,3.34
2017-11-24T17:32:03.510Z,3.29
2017-11-24T17:34:31.293Z,3.47
2017-11-24T17:36:58.780Z,3.38
2017-11-24T17:39:26.247Z,3.56
2017-11-24T17:41:53.719Z,3.51
2017-11-24T17:44:21.224Z,3.53
2017-11-24T17:46:48.840Z,3.46
2017-11-24T17:49:16.355Z,3.44
2017-11-24T17:51:43.817Z,3.46
2017-11-24T17:54:11.318Z,3.49
2017-11-24T17:56:38.822Z,3.49
2017-11-24T17:59:06.282Z,3.33
2017-11-24T18:01:33.802Z,3.51
2017-11-24T18:04:01.363Z,3.33
2017-11-24T18:06:28.874Z,3.42
2017-11-24T18:08:56.346Z,3.30
2017-11-24T18:11:23.836Z,3.43
2017-11-24T18:13:51.983Z,4.28
2017-11-24T18:16:19.946Z,3.93
2017-11-24T18:18:47.406Z,3.69
2017-11-24T18:21:14.899Z,3.52
2017-11-24T18:23:42.374Z,3.64
2017-11-24T18:26:10.035Z,3.56
2017-11-24T18:28:37.778Z,3.33
2017-11-24T18:31:07.128Z,3.39
2017-11-24T18:33:34.687Z,3.48
2017-11-24T18:36:02.170Z,3.32
2017-11-24T18:38:29.644Z,3.48
2017-11-24T18:40:57.150Z,3.40
2017-11-24T18:43:24.637Z,3.47
2017-11-24T18:45:52.127Z,3.48
2017-11-24T18:48:19.598Z,3.59
2017-11-24T18:50:47.394Z,3.64
2017-11-24T18:53:15.759Z,3.56
2017-11-24T18:55:43.694Z,4.08
2017-11-24T18:58:11.672Z,3.35
2017-11-24T19:00:39.298Z,3.36
2017-11-24T19:03:06.808Z,3.47
2017-11-24T19:05:34.486Z,3.66
2017-11-24T19:08:02.339Z,3.34
2017-11-24T19:10:31.263Z,3.37
2017-11-24T19:12:59.182Z,3.44
2017-11-24T19:15:26.811Z,3.54
2017-11-24T19:17:54.274Z,3.49
2017-11-24T19:20:22.147Z,3.38
2017-11-24T19:22:49.705Z,3.51
2017-11-24T19:25:17.358Z,3.52
2017-11-24T19:27:44.850Z,3.60
2017-11-24T19:30:12.335Z,3.61
2017-11-24T19:32:39.945Z,3.53
2017-11-24T19:35:07.786Z,3.59
2017-11-24T19:37:35.266Z,3.61
2017-11-24T19:40:02.942Z,3.56
2017-11-24T19:42:30.433Z,3.59
2017-11-24T19:44:57.895Z,3.59
2017-11-24T19:47:25.398Z,3.54
2017-11-24T19:49:53.760Z,3.56
2017-11-24T19:52:21.227Z,3.41
2017-11-24T19:54:49.649Z,3.40
2017-11-24T19:57:17.114Z,3.41
2017-11-24T19:59:45.143Z,3.37
2017-11-24T20:02:12.648Z,3.59
2017-11-24T20:04:40.133Z,3.60
2017-11-24T20:07:08.134Z,3.62
2017-11-24T20:09:35.605Z,3.60
2017-11-24T20:12:03.169Z,3.44
2017-11-24T20:14:31.176Z,3.57
2017-11-24T20:16:58.954Z,3.74
2017-11-24T20:19:26.414Z,3.47
2017-11-24T20:21:53.882Z,3.68
2017-11-24T20:24:21.467Z,3.79
2017-11-24T20:26:49.261Z,3.58
2017-11-24T20:29:16.830Z,3.54
2017-11-24T20:31:44.333Z,3.70
2017-11-24T20:34:11.818Z,3.36
2017-11-24T20:36:39.341Z,3.38
2017-11-24T20:39:06.819Z,3.40
2017-11-24T20:41:34.315Z,3.63
2017-11-24T20:44:02.377Z,3.45
2017-11-24T20:46:29.856Z,3.18
2017-11-24T20:48:57.370Z,3.30
2017-11-24T20:51:25.105Z,3.47
2017-11-24T20:53:52.662Z,3.43
2017-11-24T20:56:20.774Z,3.39
2017-11-24T20:58:48.270Z,3.30
2017-11-24T21:01:15.760Z,3.53
2017-11-24T21:03:43.237Z,3.55
2017-11-24T21:06:10.918Z,3.74
2017-11-24T21:08:38.371Z,3.59
2017-11-24T21:11:05.867Z,3.85
2017-11-24T21:13:33.334Z,3.42
2017-11-24T21:16:00.820Z,3.38
2017-11-24T21:18:28.311Z,3.42
2017-11-24T21:20:55.783Z,3.43
2017-11-24T21:23:23.269Z,3.60
2017-11-24T21:25:50.742Z,3.74
2017-11-24T21:28:18.247Z,3.67
2017-11-24T21:30:45.714Z,3.63
2017-11-24T21:33:13.227Z,3.54
2017-11-24T21:35:40.730Z,3.77
2017-11-24T21:38:08.420Z,3.65
2017-11-24T21:40:35.891Z,3.52
2017-11-24T21:43:03.374Z,3.63
2017-11-24T21:45:30.851Z,3.80
2017-11-24T21:47:58.346Z,3.60
2017-11-24T21:50:25.837Z,3.47
2017-11-24T21:52:53.816Z,3.59
2017-11-24T21:55:21.312Z,3.53
2017-11-24T21:57:48.795Z,3.54
2017-11-24T22:00:16.278Z,3.75
2017-11-24T22:02:43.763Z,3.61
2017-11-24T22:05:11.250Z,3.57
2017-11-24T22:07:38.746Z,3.85
2017-11-24T22:10:06.210Z,3.85
2017-11-24T22:12:33.696Z,3.80
2017-11-24T22:15:01.162Z,3.68
2017-11-24T22:17:28.653Z,3.67
2017-11-24T22:19:56.142Z,3.79
2017-11-24T22:22:23.870Z,3.67
2017-11-24T22:24:51.357Z,3.43
2017-11-24T22:27:18.831Z,3.56
2017-11-24T22:29:46.442Z,3.69
2017-11-24T22:32:15.394Z,3.67
2017-11-24T22:34:44.054Z,3.56
2017-11-24T22:37:11.518Z,3.56
2017-11-24T22:39:38.990Z,3.66
2017-11-24T22:42:06.471Z,3.56
2017-11-24T22:44:33.928Z,3.69
2017-11-24T22:47:01.400Z,3.67
2017-11-24T22:49:28.890Z,3.59
2017-11-24T22:51:56.358Z,3.46
2017-11-24T22:54:23.848Z,3.67
2017-11-24T22:56:51.324Z,3.57
2017-11-24T22:59:18.818Z,3.50
2017-11-24T23:01:46.291Z,3.39
2017-11-24T23:04:13.754Z,3.34
2017-11-24T23:06:41.254Z,3.33
2017-11-24T23:09:08.749Z,3.53
2017-11-24T23:11:36.222Z,3.51
2017-11-24T23:14:03.690Z,3.32
2017-11-24T23:16:31.202Z,3.38
2017-11-24T23:18:58.673Z,3.40
2017-11-24T23:21:26.140Z,3.37
2017-11-24T23:23:53.639Z,3.51
2017-11-24T23:26:21.155Z,3.43
2017-11-24T23:28:48.615Z,3.38
2017-11-24T23:31:16.070Z,3.24
2017-11-24T23:33:43.554Z,3.37
2017-11-24T23:36:11.007Z,3.36
2017-11-24T23:38:38.487Z,3.25
2017-11-24T23:41:05.959Z,3.20
2017-11-24T23:43:33.434Z,3.17
2017-11-24T23:46:00.932Z,3.15
2017-11-24T23:48:28.396Z,3.15
2017-11-24T23:50:55.855Z,3.22
2017-11-24T23:53:23.339Z,3.22
2017-11-24T23:55:50.845Z,3.45
2017-11-24T23:58:18.334Z,3.54
